createdAt,value
2022-11-06T00:00:16.959Z,4.63
2022-11-06T00:01:21.313Z,5.30
2022-11-06T00:02:23.228Z,4.82
2022-11-06T00:03:26.384Z,5.00
2022-11-06T00:04:29.104Z,4.30
2022-11-06T00:05:49.403Z,4.88
2022-11-06T00:06:51.942Z,4.60
2022-11-06T00:07:53.607Z,4.60
2022-11-06T00:08:56.423Z,4.45
2022-11-06T00:09:58.008Z,5.20
2022-11-06T00:11:00.615Z,4.55
2022-11-06T00:12:02.302Z,4.75
2022-11-06T00:13:05.173Z,4.28
2022-11-06T00:14:07.210Z,4.53
2022-11-06T00:15:10.735Z,4.85
2022-11-06T00:16:14.509Z,4.80
2022-11-06T00:17:17.491Z,4.75
2022-11-06T00:18:20.238Z,4.40
2022-11-06T00:19:21.907Z,4.50
2022-11-06T00:20:24.776Z,4.38
2022-11-06T00:21:27.853Z,4.60
2022-11-06T00:22:33.763Z,3.92
2022-11-06T00:23:36.489Z,4.45
2022-11-06T00:24:38.170Z,4.32
2022-11-06T00:25:42.415Z,4.53
2022-11-06T00:26:44.052Z,4.28
2022-11-06T00:27:47.401Z,4.38
2022-11-06T00:28:50.602Z,4.45
2022-11-06T00:29:52.221Z,4.88
2022-11-06T00:31:02.130Z,5.15
2022-11-06T00:32:03.975Z,4.18
2022-11-06T00:33:08.106Z,4.28
2022-11-06T00:34:10.856Z,4.30
2022-11-06T00:35:13.449Z,4.28
2022-11-06T00:36:17.451Z,4.70
2022-11-06T00:37:19.062Z,4.32
2022-11-06T00:38:21.748Z,4.47
2022-11-06T00:39:23.407Z,4.20
2022-11-06T00:40:25.983Z,4.75
2022-11-06T00:41:28.217Z,4.72
2022-11-06T00:42:30.940Z,4.03
2022-11-06T00:43:33.530Z,4.15
2022-11-06T00:44:36.167Z,4.55
2022-11-06T00:45:37.881Z,4.35
2022-11-06T00:46:40.410Z,4.28
2022-11-06T00:47:42.013Z,4.15
2022-11-06T00:48:46.087Z,3.72
2022-11-06T00:49:47.728Z,4.07
2022-11-06T00:50:50.266Z,4.22
2022-11-06T00:51:51.874Z,4.25
2022-11-06T00:52:55.842Z,4.22
2022-11-06T00:53:58.580Z,4.40
2022-11-06T00:55:01.250Z,3.75
2022-11-06T00:56:07.027Z,3.65
2022-11-06T00:57:09.818Z,4.20
2022-11-06T00:58:12.992Z,4.15
2022-11-06T00:59:14.744Z,4.53
2022-11-06T01:00:20.353Z,3.67
2022-11-06T01:01:23.641Z,4.05
2022-11-06T01:02:26.404Z,3.88
2022-11-06T01:03:28.042Z,3.97
2022-11-06T01:04:32.030Z,4.13
2022-11-06T01:05:33.734Z,4.13
2022-11-06T01:06:37.787Z,4.10
2022-11-06T01:07:39.463Z,4.53
2022-11-06T01:08:42.512Z,4.03
2022-11-06T01:09:44.205Z,4.00
2022-11-06T01:10:46.765Z,4.43
2022-11-06T01:12:12.228Z,3.58
2022-11-06T01:13:12.980Z,4.13
2022-11-06T01:14:16.399Z,3.83
2022-11-06T01:15:19.161Z,4.28
2022-11-06T01:16:21.692Z,4.82
2022-11-06T01:17:24.278Z,3.95
2022-11-06T01:18:25.835Z,4.57
2022-11-06T01:19:28.449Z,4.00
2022-11-06T01:20:31.393Z,4.50
2022-11-06T01:21:35.565Z,4.10
2022-11-06T01:22:37.108Z,3.78
2022-11-06T01:23:39.984Z,3.60
2022-11-06T01:24:43.082Z,4.28
2022-11-06T01:25:44.745Z,3.72
2022-11-06T01:27:12.056Z,4.03
2022-11-06T01:28:10.527Z,4.15
2022-11-06T01:29:13.988Z,3.95
2022-11-06T01:30:18.225Z,3.72
2022-11-06T01:31:22.128Z,4.10
2022-11-06T01:32:24.783Z,3.90
2022-11-06T01:33:26.388Z,4.45
2022-11-06T01:34:29.041Z,3.45
2022-11-06T01:35:31.985Z,4.30
2022-11-06T01:36:35.061Z,4.05
2022-11-06T01:37:36.646Z,4.28
2022-11-06T01:38:41.554Z,3.90
2022-11-06T01:39:44.208Z,3.72
2022-11-06T01:40:47.348Z,3.83
2022-11-06T01:41:51.564Z,3.60
2022-11-06T01:42:53.337Z,3.85
2022-11-06T01:43:58.286Z,3.78
2022-11-06T01:45:19.331Z,3.95
2022-11-06T01:46:22.294Z,3.78
2022-11-06T01:47:26.839Z,3.95
2022-11-06T01:48:28.665Z,3.55
2022-11-06T01:49:34.872Z,3.22
2022-11-06T01:50:38.322Z,3.75
2022-11-06T01:51:49.325Z,3.72
2022-11-06T01:52:51.118Z,3.83
2022-11-06T01:53:53.944Z,3.60
2022-11-06T01:54:57.640Z,3.63
2022-11-06T01:56:03.166Z,3.65
2022-11-06T01:57:05.043Z,3.75
2022-11-06T01:58:10.972Z,4.25
2022-11-06T01:59:15.564Z,3.65
2022-11-06T02:00:20.043Z,3.63
2022-11-06T02:01:22.334Z,3.72
2022-11-06T02:02:25.241Z,3.45
2022-11-06T02:03:27.073Z,4.05
2022-11-06T02:04:32.391Z,3.03
2022-11-06T02:05:35.085Z,3.20
2022-11-06T02:06:38.129Z,4.43
2022-11-06T02:07:41.829Z,2.97
2022-11-06T02:08:43.518Z,3.47
2022-11-06T02:09:46.526Z,3.30
2022-11-06T02:10:48.513Z,3.42
2022-11-06T02:11:52.708Z,3.45
2022-11-06T02:13:10.342Z,4.18
2022-11-06T02:14:18.264Z,3.72
2022-11-06T02:15:26.419Z,2.78
2022-11-06T02:16:38.714Z,3.70
2022-11-06T02:17:54.142Z,3.80
2022-11-06T02:19:07.845Z,3.50
2022-11-06T02:20:14.017Z,3.92
2022-11-06T02:21:38.457Z,3.53
2022-11-06T02:23:10.366Z,3.60
2022-11-06T02:24:37.585Z,3.67
2022-11-06T02:25:47.070Z,3.15
2022-11-06T02:27:07.045Z,3.63
2022-11-06T02:28:12.843Z,3.38
2022-11-06T02:29:20.780Z,3.13
2022-11-06T02:30:22.410Z,3.13
2022-11-06T02:31:27.553Z,3.20
2022-11-06T02:32:34.088Z,3.67
2022-11-06T02:33:40.283Z,2.90
2022-11-06T02:34:44.533Z,3.05
2022-11-06T02:35:50.160Z,3.08
2022-11-06T02:36:56.771Z,3.63
2022-11-06T02:38:01.346Z,3.80
2022-11-06T02:39:06.395Z,3.03
2022-11-06T02:40:10.181Z,3.28
2022-11-06T02:41:18.239Z,2.90
2022-11-06T02:42:22.063Z,3.50
2022-11-06T02:43:30.141Z,3.45
2022-11-06T02:44:32.796Z,3.13
2022-11-06T02:45:40.386Z,3.00
2022-11-06T02:46:43.989Z,2.80
2022-11-06T02:47:48.236Z,3.25
2022-11-06T02:48:53.711Z,3.13
2022-11-06T02:49:58.124Z,3.17
2022-11-06T02:51:00.979Z,2.75
2022-11-06T02:52:06.620Z,3.33
2022-11-06T02:53:10.379Z,3.15
2022-11-06T02:54:12.573Z,3.28
2022-11-06T02:55:16.861Z,2.65
2022-11-06T02:56:20.833Z,2.97
2022-11-06T02:57:25.102Z,3.53
2022-11-06T02:58:32.327Z,2.97
2022-11-06T02:59:41.026Z,3.40
2022-11-06T03:00:45.784Z,3.30
2022-11-06T03:01:51.276Z,3.35
2022-11-06T03:02:55.949Z,3.55
2022-11-06T03:04:02.095Z,3.30
2022-11-06T03:05:07.955Z,3.15
2022-11-06T03:06:13.766Z,3.40
2022-11-06T03:07:19.338Z,3.05
2022-11-06T03:08:26.355Z,2.83
2022-11-06T03:09:29.618Z,2.90
2022-11-06T03:10:37.034Z,3.83
2022-11-06T03:11:39.062Z,3.50
2022-11-06T03:12:51.895Z,3.20
2022-11-06T03:13:57.152Z,3.22
2022-11-06T03:15:04.801Z,2.90
2022-11-06T03:16:09.137Z,2.97
2022-11-06T03:17:14.158Z,3.13
2022-11-06T03:18:18.256Z,3.20
2022-11-06T03:19:26.837Z,2.92
2022-11-06T03:20:31.707Z,3.03
2022-11-06T03:21:39.866Z,3.42
2022-11-06T03:22:46.312Z,2.97
2022-11-06T03:23:53.629Z,2.75
2022-11-06T03:24:58.409Z,2.65
2022-11-06T03:26:06.723Z,3.13
2022-11-06T03:27:12.347Z,2.50
2022-11-06T03:28:22.153Z,2.83
2022-11-06T03:29:29.505Z,2.67
2022-11-06T03:30:34.111Z,3.33
2022-11-06T03:31:38.614Z,3.28
2022-11-06T03:32:47.580Z,3.38
2022-11-06T03:33:51.159Z,2.67
2022-11-06T03:34:55.968Z,3.05
2022-11-06T03:36:02.114Z,3.28
2022-11-06T03:37:08.599Z,3.20
2022-11-06T03:38:12.912Z,3.13
2022-11-06T03:39:19.042Z,3.25
2022-11-06T03:40:22.254Z,3.03
2022-11-06T03:41:28.344Z,3.17
2022-11-06T03:42:31.735Z,3.13
2022-11-06T03:43:37.310Z,3.03
2022-11-06T03:44:41.503Z,3.00
2022-11-06T03:45:45.359Z,3.30
2022-11-06T03:46:49.631Z,3.10
2022-11-06T03:47:56.370Z,3.08
2022-11-06T03:49:00.099Z,3.28
2022-11-06T03:50:08.690Z,3.22
2022-11-06T03:51:14.671Z,2.72
2022-11-06T03:52:19.918Z,3.53
2022-11-06T03:53:23.310Z,2.92
2022-11-06T03:54:27.864Z,2.90
2022-11-06T03:55:32.496Z,2.80
2022-11-06T03:56:38.602Z,2.70
2022-11-06T03:57:42.641Z,2.85
2022-11-06T03:58:48.042Z,3.00
2022-11-06T03:59:52.676Z,2.30
2022-11-06T04:00:56.662Z,2.60
2022-11-06T04:01:59.095Z,2.72
2022-11-06T04:03:06.101Z,2.60
2022-11-06T04:04:13.113Z,2.88
2022-11-06T04:05:17.848Z,2.88
2022-11-06T04:06:23.325Z,2.72
2022-11-06T04:07:27.947Z,3.20
2022-11-06T04:08:49.173Z,3.03
2022-11-06T04:10:12.035Z,2.40
2022-11-06T04:11:34.875Z,2.45
2022-11-06T04:12:55.779Z,2.60
2022-11-06T04:14:01.996Z,2.47
2022-11-06T04:15:04.125Z,2.70
2022-11-06T04:16:08.161Z,2.65
2022-11-06T04:17:12.419Z,3.05
2022-11-06T04:18:16.651Z,2.55
2022-11-06T04:19:19.562Z,3.08
2022-11-06T04:20:42.340Z,3.05
2022-11-06T04:22:05.534Z,2.50
2022-11-06T04:23:12.688Z,2.38
2022-11-06T04:24:44.851Z,2.50
2022-11-06T04:26:14.167Z,3.00
2022-11-06T04:27:26.431Z,2.65
2022-11-06T04:28:32.874Z,2.53
2022-11-06T04:29:44.499Z,2.90
2022-11-06T04:30:53.034Z,2.30
2022-11-06T04:31:59.641Z,2.88
2022-11-06T04:33:07.151Z,2.38
2022-11-06T04:34:14.481Z,2.50
2022-11-06T04:35:23.091Z,2.70
2022-11-06T04:36:30.363Z,2.50
2022-11-06T04:37:37.945Z,2.55
2022-11-06T04:38:45.383Z,2.10
2022-11-06T04:39:53.811Z,2.70
2022-11-06T04:41:02.481Z,2.63
2022-11-06T04:42:08.762Z,2.70
2022-11-06T04:43:15.514Z,2.63
2022-11-06T04:44:19.723Z,2.97
2022-11-06T04:45:25.738Z,2.38
2022-11-06T04:46:33.590Z,2.75
2022-11-06T04:47:35.765Z,2.63
2022-11-06T04:48:39.394Z,2.50
2022-11-06T04:49:42.404Z,2.78
2022-11-06T04:50:47.914Z,2.60
2022-11-06T04:51:49.591Z,2.60
2022-11-06T04:52:53.122Z,2.38
2022-11-06T04:53:55.384Z,2.60
2022-11-06T04:54:59.270Z,2.55
2022-11-06T04:56:02.354Z,2.80
2022-11-06T04:57:05.071Z,2.40
2022-11-06T04:58:06.620Z,2.38
2022-11-06T04:59:13.660Z,2.40
2022-11-06T05:00:16.608Z,2.88
2022-11-06T05:01:20.592Z,2.47
2022-11-06T05:02:22.404Z,2.50
2022-11-06T05:03:24.994Z,2.33
2022-11-06T05:04:26.573Z,2.30
2022-11-06T05:05:29.116Z,2.58
2022-11-06T05:06:30.688Z,3.08
2022-11-06T05:07:33.244Z,2.67
2022-11-06T05:08:34.881Z,2.20
2022-11-06T05:09:37.531Z,2.50
2022-11-06T05:10:39.132Z,2.75
2022-11-06T05:11:41.717Z,2.38
2022-11-06T05:12:43.261Z,2.30
2022-11-06T05:13:45.875Z,2.33
2022-11-06T05:14:47.503Z,2.78
2022-11-06T05:15:50.152Z,2.22
2022-11-06T05:16:54.103Z,2.13
2022-11-06T05:17:57.264Z,2.45
2022-11-06T05:18:59.886Z,2.28
2022-11-06T05:20:01.509Z,2.20
2022-11-06T05:21:22.584Z,2.85
2022-11-06T05:22:42.983Z,2.20
2022-11-06T05:23:45.680Z,2.30
2022-11-06T05:24:47.258Z,2.45
2022-11-06T05:25:49.850Z,3.38
2022-11-06T05:26:57.890Z,2.63
2022-11-06T05:28:02.268Z,2.55
2022-11-06T05:29:03.856Z,2.45
2022-11-06T05:30:07.643Z,2.20
2022-11-06T05:31:09.250Z,1.92
2022-11-06T05:32:13.238Z,2.22
2022-11-06T05:33:14.860Z,2.10
2022-11-06T05:34:17.426Z,2.50
2022-11-06T05:35:20.639Z,2.40
2022-11-06T05:36:23.267Z,2.35
2022-11-06T05:37:24.826Z,2.50
2022-11-06T05:38:27.347Z,2.38
2022-11-06T05:39:30.071Z,2.50
2022-11-06T05:40:31.782Z,2.47
2022-11-06T05:41:34.375Z,3.17
2022-11-06T05:42:37.297Z,2.50
2022-11-06T05:43:39.863Z,2.60
2022-11-06T05:44:42.487Z,2.50
2022-11-06T05:45:44.119Z,2.42
2022-11-06T05:46:49.560Z,2.55
2022-11-06T05:47:53.055Z,4.70
2022-11-06T05:48:55.586Z,2.60
2022-11-06T05:49:57.173Z,2.55
2022-11-06T05:51:03.543Z,2.80
2022-11-06T05:52:05.100Z,2.47
2022-11-06T05:53:07.631Z,2.50
2022-11-06T05:54:09.278Z,2.67
2022-11-06T05:55:15.164Z,2.45
2022-11-06T05:56:17.167Z,2.55
2022-11-06T05:57:19.713Z,2.05
2022-11-06T05:58:21.264Z,3.00
2022-11-06T05:59:23.998Z,2.50
2022-11-06T06:00:25.582Z,2.38
2022-11-06T06:01:28.174Z,2.58
2022-11-06T06:02:30.095Z,2.45
2022-11-06T06:03:34.015Z,2.60
2022-11-06T06:04:35.591Z,2.80
2022-11-06T06:05:38.123Z,2.58
2022-11-06T06:06:39.712Z,2.28
2022-11-06T06:07:42.283Z,2.50
2022-11-06T06:08:43.986Z,2.97
2022-11-06T06:09:46.573Z,2.67
2022-11-06T06:10:48.198Z,2.40
2022-11-06T06:11:52.120Z,2.42
2022-11-06T06:12:54.649Z,3.00
2022-11-06T06:13:56.183Z,2.85
2022-11-06T06:14:58.718Z,2.70
2022-11-06T06:16:01.235Z,2.80
2022-11-06T06:17:03.837Z,2.60
2022-11-06T06:18:05.769Z,2.30
2022-11-06T06:19:09.728Z,2.53
2022-11-06T06:20:12.346Z,2.45
2022-11-06T06:21:14.835Z,2.58
2022-11-06T06:22:17.700Z,2.63
2022-11-06T06:23:19.214Z,2.40
2022-11-06T06:24:21.810Z,2.70
2022-11-06T06:25:24.203Z,2.80
2022-11-06T06:26:26.820Z,2.60
2022-11-06T06:27:28.420Z,2.33
2022-11-06T06:28:31.805Z,3.15
2022-11-06T06:29:33.446Z,2.70
2022-11-06T06:30:36.793Z,2.53
2022-11-06T06:31:38.462Z,2.22
2022-11-06T06:32:40.979Z,2.40
2022-11-06T06:33:42.564Z,2.78
2022-11-06T06:34:46.718Z,2.33
2022-11-06T06:35:48.302Z,2.35
2022-11-06T06:36:51.529Z,2.50
2022-11-06T06:37:53.555Z,2.60
2022-11-06T06:38:56.235Z,2.35
2022-11-06T06:39:57.882Z,2.85
2022-11-06T06:41:04.220Z,2.10
2022-11-06T06:42:05.894Z,2.35
2022-11-06T06:43:08.419Z,2.47
2022-11-06T06:44:11.025Z,3.25
2022-11-06T06:45:12.657Z,2.30
2022-11-06T06:46:15.210Z,2.38
2022-11-06T06:47:18.030Z,2.47
2022-11-06T06:48:20.625Z,2.70
2022-11-06T06:49:23.204Z,2.45
2022-11-06T06:50:31.477Z,2.33
2022-11-06T06:51:37.230Z,2.42
2022-11-06T06:52:38.760Z,2.67
2022-11-06T06:53:41.283Z,2.33
2022-11-06T06:54:42.797Z,2.60
2022-11-06T06:55:45.473Z,2.28
2022-11-06T06:56:49.153Z,2.13
2022-11-06T06:57:56.411Z,2.40
2022-11-06T06:58:59.004Z,2.67
2022-11-06T07:00:00.736Z,2.83
2022-11-06T07:01:05.004Z,2.38
2022-11-06T07:02:07.724Z,2.10
2022-11-06T07:03:09.901Z,2.53
2022-11-06T07:04:12.526Z,2.45
2022-11-06T07:05:14.304Z,2.28
2022-11-06T07:06:19.304Z,2.40
2022-11-06T07:07:20.867Z,2.20
2022-11-06T07:08:23.404Z,2.00
2022-11-06T07:09:24.941Z,2.67
2022-11-06T07:10:27.515Z,2.95
2022-11-06T07:11:30.095Z,2.10
2022-11-06T07:12:31.707Z,1.90
2022-11-06T07:13:36.384Z,1.98
2022-11-06T07:14:38.420Z,1.88
2022-11-06T07:15:41.178Z,2.35
2022-11-06T07:16:43.742Z,2.00
2022-11-06T07:17:45.313Z,2.00
2022-11-06T07:18:47.922Z,2.10
2022-11-06T07:19:50.492Z,1.73
2022-11-06T07:20:53.112Z,2.28
2022-11-06T07:21:56.071Z,2.00
2022-11-06T07:22:59.026Z,1.90
2022-11-06T07:24:00.589Z,2.08
2022-11-06T07:25:03.171Z,2.05
2022-11-06T07:26:05.709Z,2.50
2022-11-06T07:27:08.288Z,2.03
2022-11-06T07:28:11.394Z,1.90
2022-11-06T07:29:14.570Z,1.88
2022-11-06T07:30:17.434Z,1.75
2022-11-06T07:31:20.020Z,2.15
2022-11-06T07:32:21.606Z,2.33
2022-11-06T07:33:24.167Z,2.10
2022-11-06T07:34:25.767Z,2.00
2022-11-06T07:35:28.384Z,2.03
2022-11-06T07:36:30.556Z,1.95
2022-11-06T07:37:34.552Z,2.20
2022-11-06T07:38:37.131Z,1.80
2022-11-06T07:39:39.646Z,1.60
2022-11-06T07:40:41.187Z,2.20
2022-11-06T07:41:43.858Z,2.15
2022-11-06T07:42:45.703Z,2.20
2022-11-06T07:43:50.576Z,1.80
2022-11-06T07:44:55.329Z,2.30
2022-11-06T07:45:59.943Z,2.28
2022-11-06T07:47:01.925Z,1.63
2022-11-06T07:48:05.157Z,1.88
2022-11-06T07:49:06.714Z,1.88
2022-11-06T07:50:09.472Z,1.83
2022-11-06T07:51:11.906Z,1.75
2022-11-06T07:52:14.497Z,2.40
2022-11-06T07:53:18.425Z,1.85
2022-11-06T07:54:20.070Z,1.77
2022-11-06T07:55:22.737Z,2.35
2022-11-06T07:56:25.515Z,2.10
2022-11-06T07:57:27.520Z,2.60
2022-11-06T07:58:30.073Z,2.03
2022-11-06T07:59:32.601Z,2.15
2022-11-06T08:00:34.302Z,1.90
2022-11-06T08:01:37.093Z,2.28
2022-11-06T08:02:38.876Z,1.92
2022-11-06T08:03:41.515Z,1.52
2022-11-06T08:04:43.659Z,1.83
2022-11-06T08:05:46.506Z,1.88
2022-11-06T08:06:49.156Z,1.58
2022-11-06T08:07:56.343Z,1.67
2022-11-06T08:09:00.225Z,1.25
2022-11-06T08:10:01.765Z,1.88
2022-11-06T08:11:04.607Z,1.77
2022-11-06T08:12:07.849Z,1.80
2022-11-06T08:13:10.727Z,1.67
2022-11-06T08:14:13.408Z,1.70
2022-11-06T08:15:16.255Z,1.40
2022-11-06T08:16:18.765Z,1.75
2022-11-06T08:17:20.352Z,1.92
2022-11-06T08:18:22.928Z,1.70
2022-11-06T08:19:25.767Z,1.98
2022-11-06T08:20:28.333Z,3.58
2022-11-06T08:21:30.907Z,1.75
2022-11-06T08:22:32.473Z,1.80
2022-11-06T08:23:35.882Z,2.08
2022-11-06T08:24:38.845Z,1.58
2022-11-06T08:25:41.680Z,1.55
2022-11-06T08:26:43.234Z,1.55
2022-11-06T08:27:45.861Z,1.42
2022-11-06T08:28:47.454Z,1.85
2022-11-06T08:29:50.012Z,1.58
2022-11-06T08:30:51.835Z,1.73
2022-11-06T08:31:54.476Z,1.65
2022-11-06T08:33:00.547Z,1.40
2022-11-06T08:34:03.145Z,1.80
2022-11-06T08:35:06.064Z,1.60
2022-11-06T08:36:10.134Z,1.67
2022-11-06T08:37:11.893Z,1.65
2022-11-06T08:38:14.992Z,1.60
2022-11-06T08:39:16.848Z,1.65
2022-11-06T08:40:20.873Z,2.05
2022-11-06T08:41:22.513Z,1.85
2022-11-06T08:42:25.064Z,1.70
2022-11-06T08:43:27.391Z,1.85
2022-11-06T08:44:29.951Z,1.77
2022-11-06T08:45:31.939Z,1.58
2022-11-06T08:46:34.463Z,1.58
2022-11-06T08:47:36.113Z,1.42
2022-11-06T08:48:38.719Z,1.38
2022-11-06T08:49:40.247Z,1.60
2022-11-06T08:50:43.504Z,1.67
2022-11-06T08:51:46.064Z,1.42
2022-11-06T08:52:47.667Z,1.50
2022-11-06T08:53:50.719Z,1.52
2022-11-06T08:54:52.297Z,1.58
2022-11-06T08:55:56.192Z,1.60
2022-11-06T08:56:57.994Z,1.70
2022-11-06T08:58:00.854Z,1.60
2022-11-06T08:59:02.441Z,2.35
2022-11-06T09:00:06.192Z,1.50
2022-11-06T09:01:07.848Z,1.23
2022-11-06T09:02:13.828Z,1.50
2022-11-06T09:03:17.931Z,1.50
2022-11-06T09:04:20.823Z,1.65
2022-11-06T09:05:22.442Z,1.45
2022-11-06T09:06:25.052Z,1.45
2022-11-06T09:07:26.649Z,1.35
2022-11-06T09:08:29.202Z,1.40
2022-11-06T09:09:32.040Z,1.40
2022-11-06T09:10:34.742Z,1.77
2022-11-06T09:11:38.671Z,1.85
2022-11-06T09:12:40.375Z,1.67
2022-11-06T09:13:42.925Z,1.70
2022-11-06T09:14:45.100Z,1.30
2022-11-06T09:15:48.109Z,1.52
2022-11-06T09:16:49.930Z,2.40
2022-11-06T09:17:52.919Z,1.80
2022-11-06T09:18:55.645Z,1.40
2022-11-06T09:19:58.173Z,1.50
2022-11-06T09:20:59.733Z,1.60
2022-11-06T09:22:02.575Z,1.80
2022-11-06T09:23:09.618Z,1.58
2022-11-06T09:24:11.685Z,1.40
2022-11-06T09:25:14.782Z,1.48
2022-11-06T09:26:17.866Z,1.55
2022-11-06T09:27:21.003Z,1.80
2022-11-06T09:28:23.561Z,1.42
2022-11-06T09:29:26.154Z,1.30
2022-11-06T09:30:28.745Z,1.60
2022-11-06T09:31:31.311Z,1.58
2022-11-06T09:32:33.063Z,1.65
2022-11-06T09:33:35.873Z,1.50
2022-11-06T09:34:37.454Z,1.45
2022-11-06T09:35:39.962Z,1.20
2022-11-06T09:36:42.704Z,1.35
2022-11-06T09:37:44.398Z,1.85
2022-11-06T09:38:48.547Z,1.70
2022-11-06T09:39:50.177Z,1.50
2022-11-06T09:40:54.672Z,1.90
2022-11-06T09:41:58.849Z,1.77
2022-11-06T09:43:15.759Z,1.98
2022-11-06T09:44:31.598Z,1.60
2022-11-06T09:45:33.868Z,1.40
2022-11-06T09:46:40.477Z,1.73
2022-11-06T09:47:45.012Z,1.40
2022-11-06T09:48:52.177Z,1.20
2022-11-06T09:49:55.054Z,1.55
2022-11-06T09:51:02.753Z,1.80
2022-11-06T09:52:09.109Z,1.13
2022-11-06T09:53:15.676Z,1.42
2022-11-06T09:54:21.849Z,1.30
2022-11-06T09:55:27.587Z,1.00
2022-11-06T09:56:31.129Z,1.92
2022-11-06T09:57:37.146Z,1.42
2022-11-06T09:58:41.912Z,1.35
2022-11-06T09:59:45.075Z,1.40
2022-11-06T10:00:47.890Z,1.50
2022-11-06T10:01:53.887Z,1.90
2022-11-06T10:02:59.002Z,1.73
2022-11-06T10:04:03.629Z,1.38
2022-11-06T10:05:08.775Z,1.63
2022-11-06T10:06:11.706Z,1.30
2022-11-06T10:07:22.392Z,1.55
2022-11-06T10:08:26.997Z,1.60
2022-11-06T10:09:29.196Z,1.70
2022-11-06T10:10:37.582Z,1.67
2022-11-06T10:11:51.755Z,1.80
2022-11-06T10:13:03.371Z,1.33
2022-11-06T10:14:15.503Z,1.48
2022-11-06T10:15:23.332Z,2.30
2022-11-06T10:16:33.615Z,1.63
2022-11-06T10:17:47.335Z,1.80
2022-11-06T10:18:55.700Z,1.50
2022-11-06T10:20:01.467Z,1.90
2022-11-06T10:21:11.977Z,1.40
2022-11-06T10:22:16.665Z,1.55
2022-11-06T10:23:20.724Z,1.48
2022-11-06T10:24:24.529Z,1.48
2022-11-06T10:25:40.921Z,1.40
2022-11-06T10:26:47.100Z,1.08
2022-11-06T10:27:57.506Z,1.55
2022-11-06T10:29:20.242Z,1.30
2022-11-06T10:30:22.835Z,1.38
2022-11-06T10:31:29.966Z,1.60
2022-11-06T10:32:46.417Z,1.40
2022-11-06T10:33:56.037Z,1.27
2022-11-06T10:35:01.110Z,1.60
2022-11-06T10:36:07.264Z,1.35
2022-11-06T10:37:12.124Z,1.15
2022-11-06T10:38:16.881Z,1.40
2022-11-06T10:39:22.844Z,1.20
2022-11-06T10:40:26.392Z,1.30
2022-11-06T10:41:32.169Z,1.65
2022-11-06T10:42:38.302Z,1.30
2022-11-06T10:43:43.871Z,1.45
2022-11-06T10:44:50.295Z,1.30
2022-11-06T10:45:57.272Z,1.60
2022-11-06T10:47:02.727Z,1.27
2022-11-06T10:48:13.276Z,2.17
2022-11-06T10:49:22.009Z,1.17
2022-11-06T10:50:36.767Z,1.55
2022-11-06T10:51:52.980Z,1.50
2022-11-06T10:52:59.471Z,1.33
2022-11-06T10:54:11.584Z,1.25
2022-11-06T10:56:06.846Z,1.88
2022-11-06T10:57:24.355Z,1.40
2022-11-06T10:58:28.922Z,1.38
2022-11-06T10:59:30.711Z,1.55
2022-11-06T11:00:35.117Z,1.30
2022-11-06T11:01:38.764Z,1.20
2022-11-06T11:02:43.493Z,1.25
2022-11-06T11:03:48.167Z,1.60
2022-11-06T11:04:52.794Z,1.65
2022-11-06T11:05:58.062Z,1.63
2022-11-06T11:07:10.349Z,1.50
2022-11-06T11:08:34.852Z,1.42
2022-11-06T11:09:37.387Z,1.85
2022-11-06T11:10:40.088Z,1.30
2022-11-06T11:11:49.980Z,1.42
2022-11-06T11:12:53.881Z,1.55
2022-11-06T11:14:23.543Z,1.58
2022-11-06T11:15:27.508Z,1.67
2022-11-06T11:16:34.889Z,1.13
2022-11-06T11:17:36.500Z,1.90
2022-11-06T11:18:39.193Z,1.30
2022-11-06T11:19:43.942Z,1.27
2022-11-06T11:20:46.839Z,1.65
2022-11-06T11:21:54.667Z,1.40
2022-11-06T11:23:07.381Z,1.17
2022-11-06T11:24:11.396Z,1.48
2022-11-06T11:25:25.373Z,1.73
2022-11-06T11:26:29.849Z,1.50
2022-11-06T11:27:34.045Z,1.27
2022-11-06T11:28:36.675Z,1.40
2022-11-06T11:29:44.727Z,1.10
2022-11-06T11:30:51.720Z,1.73
2022-11-06T11:31:57.894Z,1.83
2022-11-06T11:33:00.496Z,1.40
2022-11-06T11:34:04.092Z,1.60
2022-11-06T11:35:10.473Z,1.60
2022-11-06T11:36:14.776Z,1.40
2022-11-06T11:37:24.974Z,1.13
2022-11-06T11:38:26.694Z,1.50
2022-11-06T11:39:31.893Z,1.67
2022-11-06T11:40:36.432Z,1.48
2022-11-06T11:41:39.267Z,1.15
2022-11-06T11:42:40.835Z,1.50
2022-11-06T11:43:43.589Z,1.48
2022-11-06T11:44:45.166Z,1.42
2022-11-06T11:46:03.142Z,1.63
2022-11-06T11:47:21.454Z,1.33
2022-11-06T11:48:24.031Z,1.42
2022-11-06T11:49:28.593Z,1.52
2022-11-06T11:50:32.042Z,1.50
2022-11-06T11:51:36.454Z,1.30
2022-11-06T11:52:38.344Z,1.20
2022-11-06T11:53:41.385Z,1.23
2022-11-06T11:54:49.209Z,1.35
2022-11-06T11:55:52.825Z,1.40
2022-11-06T11:57:06.134Z,1.30
2022-11-06T11:58:19.767Z,1.40
2022-11-06T11:59:24.352Z,1.40
2022-11-06T12:00:26.655Z,1.30
2022-11-06T12:01:38.500Z,1.55
2022-11-06T12:02:44.769Z,1.38
2022-11-06T12:03:49.853Z,1.60
2022-11-06T12:04:54.689Z,1.40
2022-11-06T12:06:06.479Z,1.35
2022-11-06T12:07:16.048Z,1.50
2022-11-06T12:08:23.507Z,1.70
2022-11-06T12:09:26.891Z,1.60
2022-11-06T12:10:30.856Z,1.33
2022-11-06T12:11:33.419Z,1.33
2022-11-06T12:12:37.623Z,1.55
2022-11-06T12:13:39.188Z,1.35
2022-11-06T12:14:41.819Z,1.38
2022-11-06T12:15:47.689Z,1.40
2022-11-06T12:16:52.153Z,1.48
2022-11-06T12:18:00.702Z,1.70
2022-11-06T12:19:02.755Z,1.30
2022-11-06T12:20:11.761Z,1.45
2022-11-06T12:21:18.857Z,1.60
2022-11-06T12:22:25.324Z,1.30
2022-11-06T12:23:32.438Z,1.02
2022-11-06T12:24:40.377Z,1.35
2022-11-06T12:25:44.222Z,1.13
2022-11-06T12:26:49.722Z,1.20
2022-11-06T12:27:54.921Z,1.30
2022-11-06T12:29:04.694Z,2.08
2022-11-06T12:30:11.760Z,1.45
2022-11-06T12:31:20.999Z,1.30
2022-11-06T12:32:27.194Z,1.00
2022-11-06T12:34:04.553Z,1.17
2022-11-06T12:35:02.399Z,1.30
2022-11-06T12:36:08.578Z,1.33
2022-11-06T12:37:16.302Z,1.55
2022-11-06T12:38:25.028Z,1.42
2022-11-06T12:39:30.099Z,1.25
2022-11-06T12:40:33.774Z,1.20
2022-11-06T12:41:38.814Z,1.15
2022-11-06T12:42:42.868Z,1.08
2022-11-06T12:43:47.418Z,1.35
2022-11-06T12:44:49.129Z,1.27
2022-11-06T12:46:24.528Z,2.22
2022-11-06T12:47:35.540Z,1.63
2022-11-06T12:48:50.043Z,1.25
2022-11-06T12:50:06.376Z,1.20
2022-11-06T12:51:14.328Z,1.38
2022-11-06T12:52:28.400Z,1.30
2022-11-06T12:53:40.260Z,1.40
2022-11-06T12:54:55.297Z,1.45
2022-11-06T12:56:01.702Z,1.30
2022-11-06T12:57:12.356Z,1.40
2022-11-06T12:58:39.306Z,1.60
2022-11-06T12:59:51.370Z,1.67
2022-11-06T13:01:01.640Z,1.63
2022-11-06T13:02:20.850Z,1.10
2022-11-06T13:03:38.769Z,1.30
2022-11-06T13:04:51.325Z,1.45
2022-11-06T13:05:57.048Z,1.48
2022-11-06T13:07:27.509Z,1.00
2022-11-06T13:08:35.124Z,1.08
2022-11-06T13:09:44.174Z,1.20
2022-11-06T13:10:59.864Z,1.30
2022-11-06T13:12:06.107Z,1.55
2022-11-06T13:13:22.210Z,1.10
2022-11-06T13:14:30.861Z,1.20
2022-11-06T13:15:36.777Z,1.33
2022-11-06T13:16:43.438Z,1.50
2022-11-06T13:17:47.501Z,1.33
2022-11-06T13:18:53.517Z,1.73
2022-11-06T13:20:03.059Z,1.30
2022-11-06T13:21:08.524Z,1.20
2022-11-06T13:22:17.594Z,1.60
2022-11-06T13:23:24.578Z,1.20
2022-11-06T13:24:28.873Z,1.20
2022-11-06T13:25:39.715Z,1.40
2022-11-06T13:26:46.381Z,1.17
2022-11-06T13:27:50.488Z,1.20
2022-11-06T13:28:56.905Z,1.55
2022-11-06T13:30:02.156Z,1.33
2022-11-06T13:31:06.820Z,1.63
2022-11-06T13:32:12.721Z,1.10
2022-11-06T13:33:18.508Z,1.20
2022-11-06T13:34:25.828Z,1.25
2022-11-06T13:35:29.275Z,1.20
2022-11-06T13:36:32.512Z,1.70
2022-11-06T13:37:39.764Z,1.58
2022-11-06T13:38:45.709Z,1.55
2022-11-06T13:39:53.339Z,1.40
2022-11-06T13:41:03.078Z,1.25
2022-11-06T13:42:06.765Z,1.52
2022-11-06T13:43:14.466Z,1.45
2022-11-06T13:44:17.383Z,1.38
2022-11-06T13:45:20.064Z,1.20
2022-11-06T13:46:27.495Z,1.48
2022-11-06T13:47:35.396Z,1.30
2022-11-06T13:48:44.025Z,1.48
2022-11-06T13:49:52.920Z,1.67
2022-11-06T13:50:59.480Z,1.35
2022-11-06T13:52:03.839Z,1.15
2022-11-06T13:53:13.381Z,1.20
2022-11-06T13:54:23.283Z,1.40
2022-11-06T13:55:34.030Z,1.15
2022-11-06T13:56:47.338Z,1.30
2022-11-06T13:58:04.483Z,1.23
2022-11-06T13:59:24.085Z,1.73
2022-11-06T14:00:32.774Z,1.38
2022-11-06T14:01:46.756Z,2.63
2022-11-06T14:03:03.250Z,1.13
2022-11-06T14:04:31.279Z,1.20
2022-11-06T14:06:05.449Z,1.30
2022-11-06T14:07:08.558Z,1.02
2022-11-06T14:08:16.497Z,1.27
2022-11-06T14:09:22.440Z,1.08
2022-11-06T14:10:27.180Z,1.20
2022-11-06T14:11:31.460Z,1.55
2022-11-06T14:12:33.086Z,1.30
2022-11-06T14:13:36.870Z,0.98
2022-11-06T14:14:38.479Z,1.00
2022-11-06T14:15:42.598Z,1.08
2022-11-06T14:16:45.465Z,1.10
2022-11-06T14:17:54.613Z,0.98
2022-11-06T14:18:59.049Z,1.20
2022-11-06T14:20:05.016Z,1.48
2022-11-06T14:21:42.835Z,1.38
2022-11-06T14:22:45.417Z,0.98
2022-11-06T14:23:47.851Z,1.23
2022-11-06T14:24:50.523Z,1.40
2022-11-06T14:25:59.898Z,1.20
2022-11-06T14:27:03.795Z,1.58
2022-11-06T14:28:07.728Z,1.45
2022-11-06T14:29:52.859Z,1.30
2022-11-06T14:31:12.802Z,1.20
2022-11-06T14:32:43.680Z,1.27